Lanesboro, Minnesota
Current Conditions -  °F | °C
As of 10:35 PM on Monday 22 Dec 2014 (Local Time) from KFKA Reporting Station
Haze Haze  
Wind Chill: 25°   Ceiling: 200
Heat Index: 33°   Visibility: 1.2mi
Dew Point: 32°   Wind: 9mph
Humidity: 98%   Direction: 90°E
Pressure: 29.55"   Gusts: NA
Location:  43.72°N, 91.98°W
Report Text: KFKA 230435Z AUTO 09008KT 1 1/4SM BR OVC002 00/00 A2955 RMK AO2 T00030000
Loading
Personal Weather Stations






























Interactive Weather Map New forecast layout! Learn more

10-Day Weather Forecast

Advertisements
Track Severe Weather on mobile